Briefing drone pour Aix-les-bains

Rechercher une autre localisation

Conditions de vol :


Nous sommes le : Mercredi 25 mai 2022
Il est 13:58 UTC (15:58 LT)

Lever de soleil : 03:28 UTC (05:28 LT)
Coucher de soleil : 19:37 UTC (21:37 LT)

Météo

L'essentiel des conditions de vol

VIGILANCE MÉTÉO FRANCE - Savoie (73)
Pas de vigilances particulieres
METAR de LFLB
LFLB 251330Z AUTO 36007KT 9999 OVC084 25/09 Q1017 NOSIG

Date d'émission: 25/05/2022
Heure d'émission: 13:30 UTC
Vent: 360° pour 7 KT (13 km/h)
Visibilité horizontale: > 10 km
Plafond :
- Couvert à 8400ft (2560m)
Température: 25 °C
Point de rosée: 9 °C
Humidité: 36%
Pression (QNH): 1017 hPa
Conditions: Pas de changement dans les 2 heures (NOSIG)
TAF de LFLB
LFLB 250800Z 2509/2609 36010KT CAVOK TEMPO 2514/2522 BKN060

Conditions prévues :

Heure d'émission : Bulletin éffectué le 25 à 09:00 UTC
Prévision : Valide du 25 a 09:00 UTC au 26 a 09:00 UTC
Vent : 360° pour 10 KT (19 km/h)
Visibilité : > 10 km

Temporairement :

Prévision : Valide du 25 a 14:00 UTC au 25 a 22:00 UTC
Nuages : Nuages morcelés à 6000ft (1829 m)
WEBCAM POUR AIX-LES-BAINS

Réglementation

Voler en sécurité

CARTES AERONAUTIQUE 1/500.000
CARTES VAC (LFLB)
SUP AIP




Chargement des AIP...
NOTAM (AIX-LES-BAINS + Terrain à proximité / FIR )




Chargement des NOTAMS...
CONTACT PREFECTURE 73


Avertissement : Les données mises à disposition sont indicatives. Oxygène Drone ne pourra être tenu responsable de dégâts causés aux biens et aux personnes.